Terminal Aerodrome Forecast
Issued by NWS

Home | Current Version | Previous Version | Text Only | Print | Product List | Glossary Off
Versions: 1 2 3 4 5 6 7 8 9 10 11 12 13 14 15 16 17 18 19 20 21 22 23 24 25 26 27 28 29 30 31 32 33 34 35

387
FTUS43 KLOT 211119 CCA
TAFDPA
TAF COR
KDPA 211119Z 2109/2206 18006KT P6SM FEW020 SCT250
      TEMPO 2111/2113 4SM BR BKN006
     FM211500 21012G18KT P6SM SCT050
     FM220300 22011KT P6SM FEW020 BKN120=

USA.gov is the U.S. government's official web portal to all federal, state and local government web resources and services.